sensor_id;sensor_type;location;lat;lon;timestamp;P1;durP1;ratioP1;P2;durP2;ratioP2
28653;SDS011;24320;56.980;24.336;2023-07-16T00:00:27;10.40;;;4.93;;
28653;SDS011;24320;56.980;24.336;2023-07-16T00:02:54;12.70;;;5.25;;
28653;SDS011;24320;56.980;24.336;2023-07-16T00:05:22;7.82;;;5.25;;
28653;SDS011;24320;56.980;24.336;2023-07-16T00:07:49;7.38;;;4.35;;
28653;SDS011;24320;56.980;24.336;2023-07-16T00:10:16;9.63;;;4.80;;
28653;SDS011;24320;56.980;24.336;2023-07-16T00:12:43;10.90;;;4.57;;
28653;SDS011;24320;56.980;24.336;2023-07-16T00:15:10;7.85;;;4.22;;
28653;SDS011;24320;56.980;24.336;2023-07-16T00:17:37;8.38;;;4.43;;
28653;SDS011;24320;56.980;24.336;2023-07-16T00:20:04;5.25;;;3.97;;
28653;SDS011;24320;56.980;24.336;2023-07-16T00:22:32;4.13;;;3.70;;
28653;SDS011;24320;56.980;24.336;2023-07-16T00:24:59;5.80;;;3.80;;
28653;SDS011;24320;56.980;24.336;2023-07-16T00:27:27;7.10;;;4.40;;
28653;SDS011;24320;56.980;24.336;2023-07-16T00:29:54;8.40;;;3.88;;
28653;SDS011;24320;56.980;24.336;2023-07-16T00:32:20;11.00;;;3.95;;
28653;SDS011;24320;56.980;24.336;2023-07-16T00:34:48;5.80;;;3.28;;
28653;SDS011;24320;56.980;24.336;2023-07-16T00:37:15;5.82;;;3.88;;
28653;SDS011;24320;56.980;24.336;2023-07-16T00:39:42;6.70;;;4.00;;
28653;SDS011;24320;56.980;24.336;2023-07-16T00:42:10;5.03;;;3.38;;
28653;SDS011;24320;56.980;24.336;2023-07-16T00:44:37;7.20;;;3.92;;
28653;SDS011;24320;56.980;24.336;2023-07-16T00:47:04;7.10;;;4.05;;
28653;SDS011;24320;56.980;24.336;2023-07-16T00:49:31;5.97;;;3.70;;
28653;SDS011;24320;56.980;24.336;2023-07-16T00:51:58;5.85;;;3.60;;
28653;SDS011;24320;56.980;24.336;2023-07-16T00:54:26;4.60;;;3.17;;
28653;SDS011;24320;56.980;24.336;2023-07-16T00:56:56;8.48;;;3.75;;
28653;SDS011;24320;56.980;24.336;2023-07-16T00:59:23;6.20;;;3.80;;
28653;SDS011;24320;56.980;24.336;2023-07-16T01:01:50;13.05;;;3.92;;
28653;SDS011;24320;56.980;24.336;2023-07-16T01:04:17;5.60;;;3.97;;
28653;SDS011;24320;56.980;24.336;2023-07-16T01:06:45;5.82;;;3.47;;
28653;SDS011;24320;56.980;24.336;2023-07-16T01:09:17;7.10;;;3.33;;
28653;SDS011;24320;56.980;24.336;2023-07-16T01:11:46;9.02;;;3.47;;
28653;SDS011;24320;56.980;24.336;2023-07-16T01:14:15;6.15;;;3.92;;
28653;SDS011;24320;56.980;24.336;2023-07-16T01:16:43;7.13;;;3.60;;
28653;SDS011;24320;56.980;24.336;2023-07-16T01:19:11;7.78;;;4.03;;
28653;SDS011;24320;56.980;24.336;2023-07-16T01:21:48;7.30;;;3.88;;
28653;SDS011;24320;56.980;24.336;2023-07-16T01:30:22;6.55;;;3.28;;
28653;SDS011;24320;56.980;24.336;2023-07-16T01:32:51;7.25;;;3.55;;
28653;SDS011;24320;56.980;24.336;2023-07-16T01:35:19;7.05;;;3.25;;
28653;SDS011;24320;56.980;24.336;2023-07-16T01:37:47;6.53;;;3.42;;
28653;SDS011;24320;56.980;24.336;2023-07-16T01:40:14;3.40;;;2.92;;
28653;SDS011;24320;56.980;24.336;2023-07-16T01:42:41;7.70;;;2.90;;
28653;SDS011;24320;56.980;24.336;2023-07-16T01:45:08;10.90;;;3.60;;
28653;SDS011;24320;56.980;24.336;2023-07-16T01:50:27;4.75;;;3.17;;
28653;SDS011;24320;56.980;24.336;2023-07-16T01:52:54;4.45;;;3.15;;
28653;SDS011;24320;56.980;24.336;2023-07-16T01:55:21;3.72;;;2.90;;
28653;SDS011;24320;56.980;24.336;2023-07-16T01:57:48;5.57;;;3.28;;
28653;SDS011;24320;56.980;24.336;2023-07-16T02:00:15;4.28;;;2.78;;
28653;SDS011;24320;56.980;24.336;2023-07-16T02:02:42;6.68;;;2.80;;
28653;SDS011;24320;56.980;24.336;2023-07-16T02:05:09;3.92;;;2.60;;
28653;SDS011;24320;56.980;24.336;2023-07-16T02:07:36;6.15;;;3.42;;
28653;SDS011;24320;56.980;24.336;2023-07-16T02:10:03;4.60;;;2.42;;
28653;SDS011;24320;56.980;24.336;2023-07-16T02:12:30;5.03;;;2.83;;
28653;SDS011;24320;56.980;24.336;2023-07-16T02:14:58;5.82;;;2.58;;
28653;SDS011;24320;56.980;24.336;2023-07-16T02:17:25;7.00;;;2.95;;
28653;SDS011;24320;56.980;24.336;2023-07-16T02:19:52;4.03;;;2.55;;
28653;SDS011;24320;56.980;24.336;2023-07-16T02:22:19;4.47;;;2.83;;
28653;SDS011;24320;56.980;24.336;2023-07-16T02:24:47;4.60;;;2.65;;
28653;SDS011;24320;56.980;24.336;2023-07-16T02:27:14;3.30;;;2.80;;
28653;SDS011;24320;56.980;24.336;2023-07-16T02:29:41;5.93;;;2.67;;
28653;SDS011;24320;56.980;24.336;2023-07-16T02:32:08;3.92;;;2.38;;
28653;SDS011;24320;56.980;24.336;2023-07-16T02:34:35;3.83;;;2.63;;
28653;SDS011;24320;56.980;24.336;2023-07-16T02:37:02;4.03;;;2.70;;
28653;SDS011;24320;56.980;24.336;2023-07-16T02:39:29;3.92;;;2.45;;
28653;SDS011;24320;56.980;24.336;2023-07-16T02:41:56;2.72;;;2.40;;
28653;SDS011;24320;56.980;24.336;2023-07-16T02:44:23;3.80;;;2.50;;
28653;SDS011;24320;56.980;24.336;2023-07-16T02:46:50;4.68;;;2.78;;
28653;SDS011;24320;56.980;24.336;2023-07-16T02:49:17;5.50;;;2.50;;
28653;SDS011;24320;56.980;24.336;2023-07-16T02:51:44;4.45;;;2.47;;
28653;SDS011;24320;56.980;24.336;2023-07-16T02:54:11;4.13;;;2.28;;
28653;SDS011;24320;56.980;24.336;2023-07-16T02:56:38;3.95;;;2.38;;
28653;SDS011;24320;56.980;24.336;2023-07-16T02:59:05;2.75;;;2.08;;
28653;SDS011;24320;56.980;24.336;2023-07-16T03:01:32;6.03;;;2.60;;
28653;SDS011;24320;56.980;24.336;2023-07-16T03:03:59;2.97;;;2.28;;
28653;SDS011;24320;56.980;24.336;2023-07-16T03:06:26;5.00;;;2.45;;
28653;SDS011;24320;56.980;24.336;2023-07-16T03:08:54;4.15;;;2.42;;
28653;SDS011;24320;56.980;24.336;2023-07-16T03:11:21;2.88;;;1.95;;
28653;SDS011;24320;56.980;24.336;2023-07-16T03:13:48;2.28;;;2.08;;
28653;SDS011;24320;56.980;24.336;2023-07-16T03:16:15;2.00;;;1.67;;
28653;SDS011;24320;56.980;24.336;2023-07-16T03:18:44;2.72;;;1.92;;
28653;SDS011;24320;56.980;24.336;2023-07-16T03:21:12;2.80;;;1.90;;
28653;SDS011;24320;56.980;24.336;2023-07-16T03:23:39;2.33;;;1.65;;
28653;SDS011;24320;56.980;24.336;2023-07-16T03:26:06;5.15;;;2.10;;
28653;SDS011;24320;56.980;24.336;2023-07-16T03:28:33;6.22;;;2.47;;
28653;SDS011;24320;56.980;24.336;2023-07-16T03:31:01;5.68;;;1.90;;
28653;SDS011;24320;56.980;24.336;2023-07-16T03:33:28;4.30;;;1.83;;
28653;SDS011;24320;56.980;24.336;2023-07-16T03:35:55;1.90;;;1.70;;
28653;SDS011;24320;56.980;24.336;2023-07-16T03:38:22;7.38;;;2.20;;
28653;SDS011;24320;56.980;24.336;2023-07-16T03:40:49;4.10;;;1.90;;
28653;SDS011;24320;56.980;24.336;2023-07-16T03:43:16;3.45;;;1.90;;
28653;SDS011;24320;56.980;24.336;2023-07-16T03:45:44;3.53;;;1.92;;
28653;SDS011;24320;56.980;24.336;2023-07-16T03:48:11;2.33;;;1.73;;
28653;SDS011;24320;56.980;24.336;2023-07-16T03:50:38;2.72;;;1.92;;
28653;SDS011;24320;56.980;24.336;2023-07-16T03:53:05;2.00;;;1.80;;
28653;SDS011;24320;56.980;24.336;2023-07-16T03:55:32;6.63;;;2.05;;
28653;SDS011;24320;56.980;24.336;2023-07-16T03:57:59;2.70;;;1.90;;
28653;SDS011;24320;56.980;24.336;2023-07-16T04:00:26;4.85;;;2.05;;
28653;SDS011;24320;56.980;24.336;2023-07-16T04:02:53;1.83;;;1.67;;
28653;SDS011;24320;56.980;24.336;2023-07-16T04:05:21;2.38;;;1.80;;
28653;SDS011;24320;56.980;24.336;2023-07-16T04:07:50;5.63;;;1.70;;
28653;SDS011;24320;56.980;24.336;2023-07-16T04:10:17;3.67;;;1.67;;
28653;SDS011;24320;56.980;24.336;2023-07-16T04:12:44;7.20;;;1.77;;
28653;SDS011;24320;56.980;24.336;2023-07-16T04:15:11;3.45;;;2.08;;
28653;SDS011;24320;56.980;24.336;2023-07-16T04:17:38;4.80;;;2.08;;
28653;SDS011;24320;56.980;24.336;2023-07-16T04:20:06;4.40;;;2.03;;
28653;SDS011;24320;56.980;24.336;2023-07-16T04:22:34;2.53;;;1.88;;
28653;SDS011;24320;56.980;24.336;2023-07-16T04:25:02;3.30;;;1.60;;
28653;SDS011;24320;56.980;24.336;2023-07-16T04:27:30;2.22;;;1.60;;
28653;SDS011;24320;56.980;24.336;2023-07-16T04:29:57;3.53;;;1.65;;
28653;SDS011;24320;56.980;24.336;2023-07-16T04:32:24;3.42;;;1.50;;
28653;SDS011;24320;56.980;24.336;2023-07-16T04:34:51;3.33;;;1.85;;
28653;SDS011;24320;56.980;24.336;2023-07-16T04:37:18;1.85;;;1.50;;
28653;SDS011;24320;56.980;24.336;2023-07-16T04:39:45;3.75;;;1.70;;
28653;SDS011;24320;56.980;24.336;2023-07-16T04:42:12;1.90;;;1.80;;
28653;SDS011;24320;56.980;24.336;2023-07-16T04:44:39;3.28;;;1.70;;
28653;SDS011;24320;56.980;24.336;2023-07-16T04:47:06;3.85;;;2.10;;
28653;SDS011;24320;56.980;24.336;2023-07-16T04:49:34;5.63;;;1.73;;
28653;SDS011;24320;56.980;24.336;2023-07-16T04:52:02;2.60;;;1.55;;
28653;SDS011;24320;56.980;24.336;2023-07-16T04:54:34;2.90;;;1.63;;
28653;SDS011;24320;56.980;24.336;2023-07-16T04:57:05;5.35;;;1.90;;
28653;SDS011;24320;56.980;24.336;2023-07-16T04:59:34;3.83;;;1.67;;
28653;SDS011;24320;56.980;24.336;2023-07-16T05:02:04;6.63;;;2.00;;
28653;SDS011;24320;56.980;24.336;2023-07-16T05:04:33;4.15;;;2.00;;
28653;SDS011;24320;56.980;24.336;2023-07-16T05:07:01;2.88;;;1.45;;
28653;SDS011;24320;56.980;24.336;2023-07-16T05:09:29;1.90;;;1.60;;
28653;SDS011;24320;56.980;24.336;2023-07-16T05:11:56;1.85;;;1.35;;
28653;SDS011;24320;56.980;24.336;2023-07-16T05:14:25;2.58;;;1.55;;
28653;SDS011;24320;56.980;24.336;2023-07-16T05:19:22;2.38;;;1.50;;
28653;SDS011;24320;56.980;24.336;2023-07-16T05:21:49;2.35;;;1.80;;
28653;SDS011;24320;56.980;24.336;2023-07-16T05:24:16;2.50;;;1.50;;
28653;SDS011;24320;56.980;24.336;2023-07-16T05:26:43;60.17;;;3.97;;
28653;SDS011;24320;56.980;24.336;2023-07-16T05:29:10;8.23;;;2.00;;
28653;SDS011;24320;56.980;24.336;2023-07-16T05:31:37;2.72;;;1.77;;
28653;SDS011;24320;56.980;24.336;2023-07-16T05:34:04;3.38;;;1.70;;
28653;SDS011;24320;56.980;24.336;2023-07-16T05:36:31;1.83;;;1.40;;
28653;SDS011;24320;56.980;24.336;2023-07-16T05:38:58;5.53;;;1.60;;
28653;SDS011;24320;56.980;24.336;2023-07-16T05:41:25;4.20;;;1.75;;
28653;SDS011;24320;56.980;24.336;2023-07-16T05:43:52;2.10;;;1.42;;
28653;SDS011;24320;56.980;24.336;2023-07-16T05:46:19;1.55;;;1.45;;
28653;SDS011;24320;56.980;24.336;2023-07-16T05:48:46;2.35;;;1.60;;
28653;SDS011;24320;56.980;24.336;2023-07-16T05:51:13;2.75;;;1.70;;
28653;SDS011;24320;56.980;24.336;2023-07-16T05:53:40;2.92;;;1.75;;
28653;SDS011;24320;56.980;24.336;2023-07-16T05:56:07;1.65;;;1.42;;
28653;SDS011;24320;56.980;24.336;2023-07-16T05:58:34;2.30;;;1.75;;
28653;SDS011;24320;56.980;24.336;2023-07-16T06:01:01;3.88;;;1.52;;
28653;SDS011;24320;56.980;24.336;2023-07-16T06:03:28;2.00;;;1.60;;
28653;SDS011;24320;56.980;24.336;2023-07-16T06:05:55;5.07;;;1.70;;
28653;SDS011;24320;56.980;24.336;2023-07-16T06:08:22;3.10;;;1.70;;
28653;SDS011;24320;56.980;24.336;2023-07-16T06:10:51;4.57;;;1.73;;
28653;SDS011;24320;56.980;24.336;2023-07-16T06:13:18;2.13;;;1.70;;
28653;SDS011;24320;56.980;24.336;2023-07-16T06:18:21;3.03;;;1.80;;
28653;SDS011;24320;56.980;24.336;2023-07-16T06:20:48;3.40;;;1.90;;
28653;SDS011;24320;56.980;24.336;2023-07-16T06:23:18;5.32;;;1.70;;
28653;SDS011;24320;56.980;24.336;2023-07-16T06:25:45;4.03;;;1.90;;
28653;SDS011;24320;56.980;24.336;2023-07-16T06:28:14;3.47;;;2.00;;
28653;SDS011;24320;56.980;24.336;2023-07-16T06:30:42;1.63;;;1.50;;
28653;SDS011;24320;56.980;24.336;2023-07-16T06:33:09;4.32;;;1.50;;
28653;SDS011;24320;56.980;24.336;2023-07-16T06:35:36;2.97;;;1.65;;
28653;SDS011;24320;56.980;24.336;2023-07-16T06:38:03;3.00;;;1.60;;
28653;SDS011;24320;56.980;24.336;2023-07-16T06:40:30;2.20;;;1.63;;
28653;SDS011;24320;56.980;24.336;2023-07-16T06:42:57;2.22;;;1.63;;
28653;SDS011;24320;56.980;24.336;2023-07-16T06:45:25;2.20;;;1.40;;
28653;SDS011;24320;56.980;24.336;2023-07-16T06:47:52;2.83;;;1.45;;
28653;SDS011;24320;56.980;24.336;2023-07-16T06:50:19;1.88;;;1.60;;
28653;SDS011;24320;56.980;24.336;2023-07-16T06:52:46;2.03;;;1.65;;
28653;SDS011;24320;56.980;24.336;2023-07-16T06:55:13;2.45;;;1.60;;
28653;SDS011;24320;56.980;24.336;2023-07-16T06:57:40;3.25;;;1.77;;
28653;SDS011;24320;56.980;24.336;2023-07-16T07:00:07;3.53;;;1.80;;
28653;SDS011;24320;56.980;24.336;2023-07-16T07:02:37;7.38;;;1.63;;
28653;SDS011;24320;56.980;24.336;2023-07-16T07:05:04;3.00;;;1.40;;
28653;SDS011;24320;56.980;24.336;2023-07-16T07:07:32;2.60;;;1.50;;
28653;SDS011;24320;56.980;24.336;2023-07-16T07:09:59;3.13;;;1.63;;
28653;SDS011;24320;56.980;24.336;2023-07-16T07:12:26;5.30;;;1.55;;
28653;SDS011;24320;56.980;24.336;2023-07-16T07:14:53;3.50;;;2.17;;
28653;SDS011;24320;56.980;24.336;2023-07-16T07:17:20;1.83;;;1.60;;
28653;SDS011;24320;56.980;24.336;2023-07-16T07:19:47;2.50;;;1.40;;
28653;SDS011;24320;56.980;24.336;2023-07-16T07:22:14;3.00;;;1.45;;
28653;SDS011;24320;56.980;24.336;2023-07-16T07:24:48;3.85;;;1.55;;
28653;SDS011;24320;56.980;24.336;2023-07-16T07:27:15;2.20;;;1.55;;
28653;SDS011;24320;56.980;24.336;2023-07-16T07:29:42;1.60;;;1.40;;
28653;SDS011;24320;56.980;24.336;2023-07-16T07:32:10;2.13;;;1.60;;
28653;SDS011;24320;56.980;24.336;2023-07-16T07:34:38;2.42;;;1.50;;
28653;SDS011;24320;56.980;24.336;2023-07-16T07:37:05;3.28;;;1.50;;
28653;SDS011;24320;56.980;24.336;2023-07-16T07:39:32;2.00;;;1.38;;
28653;SDS011;24320;56.980;24.336;2023-07-16T07:41:59;1.77;;;1.38;;
28653;SDS011;24320;56.980;24.336;2023-07-16T07:44:27;3.50;;;1.55;;
28653;SDS011;24320;56.980;24.336;2023-07-16T07:46:56;1.60;;;1.40;;
28653;SDS011;24320;56.980;24.336;2023-07-16T07:49:23;3.78;;;1.70;;
28653;SDS011;24320;56.980;24.336;2023-07-16T07:51:51;4.03;;;1.33;;
28653;SDS011;24320;56.980;24.336;2023-07-16T07:54:18;3.15;;;1.63;;
28653;SDS011;24320;56.980;24.336;2023-07-16T07:56:45;3.75;;;1.70;;
28653;SDS011;24320;56.980;24.336;2023-07-16T07:59:13;2.25;;;1.73;;
28653;SDS011;24320;56.980;24.336;2023-07-16T08:01:40;4.40;;;1.77;;
28653;SDS011;24320;56.980;24.336;2023-07-16T08:04:07;3.58;;;1.70;;
28653;SDS011;24320;56.980;24.336;2023-07-16T08:06:34;3.60;;;1.70;;
28653;SDS011;24320;56.980;24.336;2023-07-16T08:09:01;2.67;;;1.90;;
28653;SDS011;24320;56.980;24.336;2023-07-16T08:11:29;3.88;;;1.58;;
28653;SDS011;24320;56.980;24.336;2023-07-16T08:13:56;2.00;;;1.80;;
28653;SDS011;24320;56.980;24.336;2023-07-16T08:16:23;2.55;;;1.95;;
28653;SDS011;24320;56.980;24.336;2023-07-16T08:18:50;2.53;;;1.80;;
28653;SDS011;24320;56.980;24.336;2023-07-16T08:21:17;6.72;;;1.73;;
28653;SDS011;24320;56.980;24.336;2023-07-16T08:23:49;5.07;;;1.80;;
28653;SDS011;24320;56.980;24.336;2023-07-16T08:28:44;5.50;;;1.70;;
28653;SDS011;24320;56.980;24.336;2023-07-16T08:31:11;3.17;;;1.70;;
28653;SDS011;24320;56.980;24.336;2023-07-16T08:33:42;4.53;;;1.70;;
28653;SDS011;24320;56.980;24.336;2023-07-16T08:36:09;3.85;;;2.05;;
28653;SDS011;24320;56.980;24.336;2023-07-16T08:38:36;2.47;;;2.08;;
28653;SDS011;24320;56.980;24.336;2023-07-16T08:41:03;4.43;;;1.85;;
28653;SDS011;24320;56.980;24.336;2023-07-16T08:43:30;9.23;;;3.13;;
28653;SDS011;24320;56.980;24.336;2023-07-16T08:46:00;3.08;;;2.05;;
28653;SDS011;24320;56.980;24.336;2023-07-16T08:48:28;6.32;;;2.15;;
28653;SDS011;24320;56.980;24.336;2023-07-16T08:50:57;3.17;;;2.00;;
28653;SDS011;24320;56.980;24.336;2023-07-16T08:53:28;3.65;;;2.08;;
28653;SDS011;24320;56.980;24.336;2023-07-16T08:55:56;3.25;;;2.03;;
28653;SDS011;24320;56.980;24.336;2023-07-16T08:58:24;4.20;;;2.13;;
28653;SDS011;24320;56.980;24.336;2023-07-16T09:00:51;3.08;;;2.35;;
28653;SDS011;24320;56.980;24.336;2023-07-16T09:03:19;4.78;;;2.00;;
28653;SDS011;24320;56.980;24.336;2023-07-16T09:05:46;2.75;;;1.80;;
28653;SDS011;24320;56.980;24.336;2023-07-16T09:08:14;4.00;;;2.40;;
28653;SDS011;24320;56.980;24.336;2023-07-16T09:10:41;2.55;;;2.05;;
28653;SDS011;24320;56.980;24.336;2023-07-16T09:13:09;3.05;;;2.03;;
28653;SDS011;24320;56.980;24.336;2023-07-16T09:15:37;2.67;;;2.00;;
28653;SDS011;24320;56.980;24.336;2023-07-16T09:18:05;3.20;;;2.22;;
28653;SDS011;24320;56.980;24.336;2023-07-16T09:20:33;3.22;;;2.20;;
28653;SDS011;24320;56.980;24.336;2023-07-16T09:23:00;4.20;;;2.47;;
28653;SDS011;24320;56.980;24.336;2023-07-16T09:25:30;4.57;;;2.40;;
28653;SDS011;24320;56.980;24.336;2023-07-16T09:27:58;3.42;;;2.30;;
28653;SDS011;24320;56.980;24.336;2023-07-16T09:30:31;2.67;;;2.15;;
28653;SDS011;24320;56.980;24.336;2023-07-16T09:33:18;4.45;;;2.35;;
28653;SDS011;24320;56.980;24.336;2023-07-16T09:35:50;7.32;;;2.20;;
28653;SDS011;24320;56.980;24.336;2023-07-16T09:40:45;7.85;;;2.40;;
28653;SDS011;24320;56.980;24.336;2023-07-16T09:43:12;7.88;;;2.17;;
28653;SDS011;24320;56.980;24.336;2023-07-16T09:45:41;3.70;;;2.20;;
28653;SDS011;24320;56.980;24.336;2023-07-16T09:48:08;8.07;;;2.38;;
28653;SDS011;24320;56.980;24.336;2023-07-16T09:50:36;5.75;;;2.70;;
28653;SDS011;24320;56.980;24.336;2023-07-16T09:53:06;4.55;;;2.63;;
28653;SDS011;24320;56.980;24.336;2023-07-16T09:55:34;5.72;;;2.42;;
28653;SDS011;24320;56.980;24.336;2023-07-16T09:58:05;3.17;;;2.30;;
28653;SDS011;24320;56.980;24.336;2023-07-16T10:00:35;2.70;;;2.30;;
28653;SDS011;24320;56.980;24.336;2023-07-16T10:03:05;6.63;;;2.25;;
28653;SDS011;24320;56.980;24.336;2023-07-16T10:05:35;6.82;;;2.53;;
28653;SDS011;24320;56.980;24.336;2023-07-16T10:08:04;3.88;;;2.78;;
28653;SDS011;24320;56.980;24.336;2023-07-16T10:10:42;5.07;;;2.72;;
28653;SDS011;24320;56.980;24.336;2023-07-16T10:13:12;3.22;;;2.33;;
28653;SDS011;24320;56.980;24.336;2023-07-16T10:15:50;2.78;;;2.20;;
28653;SDS011;24320;56.980;24.336;2023-07-16T10:18:25;6.07;;;2.38;;
28653;SDS011;24320;56.980;24.336;2023-07-16T10:21:02;3.92;;;2.63;;
28653;SDS011;24320;56.980;24.336;2023-07-16T10:23:39;7.97;;;2.63;;
28653;SDS011;24320;56.980;24.336;2023-07-16T10:26:09;3.88;;;2.65;;
28653;SDS011;24320;56.980;24.336;2023-07-16T10:28:42;4.13;;;2.53;;
28653;SDS011;24320;56.980;24.336;2023-07-16T10:31:23;4.00;;;2.70;;
28653;SDS011;24320;56.980;24.336;2023-07-16T10:34:04;6.75;;;3.35;;
28653;SDS011;24320;56.980;24.336;2023-07-16T10:36:38;3.67;;;2.67;;
28653;SDS011;24320;56.980;24.336;2023-07-16T10:39:05;7.85;;;2.53;;
28653;SDS011;24320;56.980;24.336;2023-07-16T10:41:33;4.38;;;3.00;;
28653;SDS011;24320;56.980;24.336;2023-07-16T10:44:00;5.38;;;2.75;;
28653;SDS011;24320;56.980;24.336;2023-07-16T10:46:27;11.38;;;2.75;;
28653;SDS011;24320;56.980;24.336;2023-07-16T10:48:54;3.17;;;2.80;;
28653;SDS011;24320;56.980;24.336;2023-07-16T10:51:25;4.45;;;2.97;;
28653;SDS011;24320;56.980;24.336;2023-07-16T10:53:55;3.22;;;2.58;;
28653;SDS011;24320;56.980;24.336;2023-07-16T10:58:50;10.75;;;3.28;;
28653;SDS011;24320;56.980;24.336;2023-07-16T11:01:17;4.15;;;2.63;;
28653;SDS011;24320;56.980;24.336;2023-07-16T11:03:46;5.43;;;3.05;;
28653;SDS011;24320;56.980;24.336;2023-07-16T11:06:13;3.72;;;2.70;;
28653;SDS011;24320;56.980;24.336;2023-07-16T11:08:42;5.05;;;3.20;;
28653;SDS011;24320;56.980;24.336;2023-07-16T11:11:09;4.88;;;3.30;;
28653;SDS011;24320;56.980;24.336;2023-07-16T11:13:36;4.28;;;2.45;;
28653;SDS011;24320;56.980;24.336;2023-07-16T11:16:07;6.80;;;2.95;;
28653;SDS011;24320;56.980;24.336;2023-07-16T11:18:35;4.25;;;3.20;;
28653;SDS011;24320;56.980;24.336;2023-07-16T11:21:03;4.70;;;3.28;;
28653;SDS011;24320;56.980;24.336;2023-07-16T11:23:33;3.60;;;2.72;;
28653;SDS011;24320;56.980;24.336;2023-07-16T11:26:04;7.22;;;3.08;;
28653;SDS011;24320;56.980;24.336;2023-07-16T11:28:40;3.50;;;2.70;;
28653;SDS011;24320;56.980;24.336;2023-07-16T11:31:15;4.25;;;2.90;;
28653;SDS011;24320;56.980;24.336;2023-07-16T11:33:44;4.45;;;3.03;;
28653;SDS011;24320;56.980;24.336;2023-07-16T11:36:12;3.92;;;2.90;;
28653;SDS011;24320;56.980;24.336;2023-07-16T11:38:39;9.50;;;3.30;;
28653;SDS011;24320;56.980;24.336;2023-07-16T11:41:07;3.83;;;2.95;;
28653;SDS011;24320;56.980;24.336;2023-07-16T11:43:34;4.28;;;3.10;;
28653;SDS011;24320;56.980;24.336;2023-07-16T11:46:03;4.47;;;2.53;;
28653;SDS011;24320;56.980;24.336;2023-07-16T11:48:35;4.60;;;3.10;;
28653;SDS011;24320;56.980;24.336;2023-07-16T11:51:02;5.78;;;3.42;;
28653;SDS011;24320;56.980;24.336;2023-07-16T11:53:29;9.27;;;3.00;;
28653;SDS011;24320;56.980;24.336;2023-07-16T11:55:56;7.95;;;3.10;;
28653;SDS011;24320;56.980;24.336;2023-07-16T11:58:23;9.00;;;3.15;;
28653;SDS011;24320;56.980;24.336;2023-07-16T12:00:50;5.53;;;2.97;;
28653;SDS011;24320;56.980;24.336;2023-07-16T12:03:17;10.93;;;3.53;;
28653;SDS011;24320;56.980;24.336;2023-07-16T12:05:45;5.78;;;3.10;;
28653;SDS011;24320;56.980;24.336;2023-07-16T12:08:19;12.82;;;3.70;;
28653;SDS011;24320;56.980;24.336;2023-07-16T12:10:46;4.43;;;3.40;;
28653;SDS011;24320;56.980;24.336;2023-07-16T12:13:13;3.67;;;3.10;;
28653;SDS011;24320;56.980;24.336;2023-07-16T12:15:40;7.15;;;3.90;;
28653;SDS011;24320;56.980;24.336;2023-07-16T12:18:07;5.72;;;3.60;;
28653;SDS011;24320;56.980;24.336;2023-07-16T12:20:35;5.03;;;3.13;;
28653;SDS011;24320;56.980;24.336;2023-07-16T12:23:06;3.22;;;2.78;;
28653;SDS011;24320;56.980;24.336;2023-07-16T12:25:34;8.32;;;3.60;;
28653;SDS011;24320;56.980;24.336;2023-07-16T12:28:01;10.98;;;3.40;;
28653;SDS011;24320;56.980;24.336;2023-07-16T12:30:28;4.38;;;3.17;;
28653;SDS011;24320;56.980;24.336;2023-07-16T12:32:55;4.55;;;3.53;;
28653;SDS011;24320;56.980;24.336;2023-07-16T12:35:23;9.05;;;3.17;;
28653;SDS011;24320;56.980;24.336;2023-07-16T12:37:50;6.95;;;3.60;;
28653;SDS011;24320;56.980;24.336;2023-07-16T12:40:17;6.47;;;3.80;;
28653;SDS011;24320;56.980;24.336;2023-07-16T12:42:44;12.23;;;3.65;;
28653;SDS011;24320;56.980;24.336;2023-07-16T12:45:11;10.60;;;3.60;;
28653;SDS011;24320;56.980;24.336;2023-07-16T12:47:38;11.40;;;3.13;;
28653;SDS011;24320;56.980;24.336;2023-07-16T12:50:07;8.13;;;3.50;;
28653;SDS011;24320;56.980;24.336;2023-07-16T12:52:34;4.95;;;3.33;;
28653;SDS011;24320;56.980;24.336;2023-07-16T12:55:01;5.40;;;3.58;;
28653;SDS011;24320;56.980;24.336;2023-07-16T12:57:28;6.60;;;3.30;;
28653;SDS011;24320;56.980;24.336;2023-07-16T12:59:55;4.32;;;3.60;;
28653;SDS011;24320;56.980;24.336;2023-07-16T13:02:22;6.53;;;3.47;;
28653;SDS011;24320;56.980;24.336;2023-07-16T13:04:49;8.55;;;3.42;;
28653;SDS011;24320;56.980;24.336;2023-07-16T13:07:16;5.15;;;3.78;;
28653;SDS011;24320;56.980;24.336;2023-07-16T13:09:43;6.07;;;3.60;;
28653;SDS011;24320;56.980;24.336;2023-07-16T13:12:10;4.53;;;3.58;;
28653;SDS011;24320;56.980;24.336;2023-07-16T13:14:37;5.50;;;3.55;;
28653;SDS011;24320;56.980;24.336;2023-07-16T13:17:04;6.03;;;3.25;;
28653;SDS011;24320;56.980;24.336;2023-07-16T13:19:32;7.63;;;3.90;;
28653;SDS011;24320;56.980;24.336;2023-07-16T13:21:59;4.78;;;3.65;;
28653;SDS011;24320;56.980;24.336;2023-07-16T13:24:26;4.78;;;3.20;;
28653;SDS011;24320;56.980;24.336;2023-07-16T13:26:53;9.65;;;3.80;;
28653;SDS011;24320;56.980;24.336;2023-07-16T13:29:20;6.70;;;3.40;;
28653;SDS011;24320;56.980;24.336;2023-07-16T13:31:47;4.10;;;3.65;;
28653;SDS011;24320;56.980;24.336;2023-07-16T13:34:14;7.72;;;3.78;;
28653;SDS011;24320;56.980;24.336;2023-07-16T13:36:41;8.45;;;3.80;;
28653;SDS011;24320;56.980;24.336;2023-07-16T13:39:08;6.03;;;3.60;;
28653;SDS011;24320;56.980;24.336;2023-07-16T13:41:36;7.20;;;3.95;;
28653;SDS011;24320;56.980;24.336;2023-07-16T13:44:03;6.63;;;4.38;;
28653;SDS011;24320;56.980;24.336;2023-07-16T13:46:30;13.07;;;4.20;;
28653;SDS011;24320;56.980;24.336;2023-07-16T13:48:57;8.07;;;4.00;;
28653;SDS011;24320;56.980;24.336;2023-07-16T13:51:26;6.82;;;3.90;;
28653;SDS011;24320;56.980;24.336;2023-07-16T13:53:53;5.57;;;3.63;;
28653;SDS011;24320;56.980;24.336;2023-07-16T13:56:20;6.53;;;3.80;;
28653;SDS011;24320;56.980;24.336;2023-07-16T13:58:47;7.53;;;4.03;;
28653;SDS011;24320;56.980;24.336;2023-07-16T14:01:14;4.75;;;4.00;;
28653;SDS011;24320;56.980;24.336;2023-07-16T14:03:43;6.93;;;4.07;;
28653;SDS011;24320;56.980;24.336;2023-07-16T14:06:10;4.25;;;3.53;;
28653;SDS011;24320;56.980;24.336;2023-07-16T14:08:37;4.65;;;3.65;;
28653;SDS011;24320;56.980;24.336;2023-07-16T14:11:04;4.32;;;3.78;;
28653;SDS011;24320;56.980;24.336;2023-07-16T14:13:31;8.75;;;4.03;;
28653;SDS011;24320;56.980;24.336;2023-07-16T14:15:58;7.07;;;4.07;;
28653;SDS011;24320;56.980;24.336;2023-07-16T14:18:25;6.78;;;3.30;;
28653;SDS011;24320;56.980;24.336;2023-07-16T14:20:52;6.70;;;3.65;;
28653;SDS011;24320;56.980;24.336;2023-07-16T14:23:19;5.65;;;3.97;;
28653;SDS011;24320;56.980;24.336;2023-07-16T14:25:46;6.50;;;4.05;;
28653;SDS011;24320;56.980;24.336;2023-07-16T14:28:13;5.22;;;4.13;;
28653;SDS011;24320;56.980;24.336;2023-07-16T14:30:40;10.20;;;3.72;;
28653;SDS011;24320;56.980;24.336;2023-07-16T14:33:07;4.35;;;3.75;;
28653;SDS011;24320;56.980;24.336;2023-07-16T14:35:35;9.43;;;4.15;;
28653;SDS011;24320;56.980;24.336;2023-07-16T14:38:04;5.67;;;3.70;;
28653;SDS011;24320;56.980;24.336;2023-07-16T14:40:31;6.70;;;4.35;;
28653;SDS011;24320;56.980;24.336;2023-07-16T14:42:58;7.05;;;3.65;;
28653;SDS011;24320;56.980;24.336;2023-07-16T14:45:26;8.55;;;4.03;;
28653;SDS011;24320;56.980;24.336;2023-07-16T14:47:54;4.25;;;3.60;;
28653;SDS011;24320;56.980;24.336;2023-07-16T14:50:21;4.80;;;3.70;;
28653;SDS011;24320;56.980;24.336;2023-07-16T14:52:50;4.55;;;3.80;;
28653;SDS011;24320;56.980;24.336;2023-07-16T14:55:17;6.30;;;4.00;;
28653;SDS011;24320;56.980;24.336;2023-07-16T14:57:44;5.68;;;4.15;;